Flight Track Log - Related Links

Times and Time Zones

All times are in EDT time to prevent confusion due to time zone crossing. See the SLI536 flight status page for this flight to view local times or setup timezone preferences in your user account.

Time Position Orientation Groundspeed Altitude Reporting Facility
EDT Latitude Longitude Course Direction KTS MPH feet Rate Location/Type
Tue 09:34:00 AM 20.8852 -90.0495 262° West  Level Estimated
Tue 09:35:00 AM 20.8721 -90.1474 262° West  Level Estimated
Tue 09:36:00 AM 20.8589 -90.2453 262° West  Level Estimated
Tue 09:37:00 AM 20.8457 -90.3431 262° West  Level Estimated
Tue 09:38:00 AM 20.8324 -90.4410 262° West  Level Estimated
Tue 09:39:00 AM 20.8191 -90.5388 262° West  Level Estimated
Tue 09:40:00 AM 20.8057 -90.6367 262° West  Level Estimated
Tue 09:41:00 AM 20.7923 -90.7345 262° West  Level Estimated
Tue 09:42:00 AM 20.7788 -90.8322 262° West  Level Estimated
Tue 09:43:00 AM 20.7653 -90.9300 262° West  Level Estimated
Tue 09:44:00 AM 20.7517 -91.0278 262° West  Level Estimated
Tue 09:45:00 AM 20.7381 -91.1255 262° West  Level Estimated
Tue 09:46:00 AM 20.7243 -91.2232 261° West  Level Estimated
Tue 09:47:00 AM 20.7106 -91.3209 261° West  Level Estimated
Tue 09:48:00 AM 20.6968 -91.4186 261° West  Level Estimated
Tue 09:49:00 AM 20.6829 -91.5162 261° West  Level Estimated
Tue 09:50:00 AM 20.6690 -91.6139 261° West  Level Estimated
Tue 09:51:00 AM 20.6550 -91.7115 261° West  Level Estimated
Tue 09:52:00 AM 20.6409 -91.8091 261° West  Level Estimated
Tue 09:53:00 AM 20.6269 -91.9067 261° West  Level Estimated
Tue 09:54:00 AM 20.6127 -92.0043 261° West  Level Estimated
Tue 09:55:00 AM 20.5985 -92.1018 261° West  Level Estimated
Tue 09:56:00 AM 20.5843 -92.1994 261° West  Level Estimated
Tue 09:57:00 AM 20.5700 -92.2969 261° West  Level Estimated
Tue 09:58:00 AM 20.5556 -92.3944 261° West  Level Estimated
Tue 09:59:00 AM 20.5412 -92.4919 261° West  Level Estimated
Tue 10:00:00 AM 20.5267 -92.5893 261° West  Level Estimated
Tue 10:01:00 AM 20.5122 -92.6868 261° West  Level Estimated
Tue 10:02:00 AM 20.4976 -92.7842 261° West  Level Estimated
Tue 10:03:00 AM 20.4830 -92.8816 261° West  Level Estimated
Tue 10:04:00 AM 20.4683 -92.9790 261° West  Level Estimated
Tue 10:05:00 AM 20.4535 -93.0764 261° West  Level Estimated
Tue 10:06:00 AM 20.4387 -93.1737 261° West  Level Estimated
Tue 10:07:00 AM 20.4239 -93.2710 261° West  Level Estimated
Tue 10:08:00 AM 20.4090 -93.3683 261° West  Level Estimated
Tue 10:09:00 AM 20.3940 -93.4656 261° West  Level Estimated
Tue 10:10:00 AM 20.3790 -93.5629 261° West  Level Estimated
Tue 10:11:00 AM 20.3639 -93.6602 261° West  Level Estimated
Tue 10:12:00 AM 20.3488 -93.7574 261° West  Level Estimated
Tue 10:13:00 AM 20.3336 -93.8546 261° West  Level Estimated
Tue 10:14:00 AM 20.3184 -93.9518 261° West  Level Estimated
Tue 10:15:00 AM 20.3031 -94.0490 260° West  Level Estimated
Tue 10:16:00 AM 20.2878 -94.1462 260° West  Level Estimated
Tue 10:17:00 AM 20.2724 -94.2433 260° West  Level Estimated
Tue 10:18:00 AM 20.2570 -94.3404 260° West  Level Estimated
Tue 10:19:00 AM 20.2414 -94.4375 260° West  Level Estimated
Tue 10:20:00 AM 20.2259 -94.5346 260° West  Level Estimated
Tue 10:21:00 AM 20.2103 -94.6317 260° West  Level Estimated
Tue 10:22:00 AM 20.1946 -94.7287 260° West  Level Estimated
Tue 10:23:00 AM 20.1789 -94.8257 260° West  Level Estimated
Tue 10:24:00 AM 20.1632 -94.9227 260° West  Level Estimated
Tue 10:25:00 AM 20.1474 -95.0197 260° West  Level Estimated
Tue 10:26:00 AM 20.1315 -95.1167 260° West  Level Estimated
Tue 10:27:00 AM 20.1156 -95.2136 260° West  Level Estimated
Tue 10:28:00 AM 20.0996 -95.3106 260° West  Level Estimated
Tue 10:29:00 AM 20.0835 -95.4075 260° West  Level Estimated
Tue 10:30:00 AM 20.0675 -95.5044 260° West  Level Estimated
Tue 10:31:00 AM 20.0513 -95.6012 260° West  Level Estimated
Tue 10:32:00 AM 20.0351 -95.6981 260° West  Level Estimated
Tue 10:33:00 AM 20.0189 -95.7949 260° West  Level Estimated
Tue 10:34:00 AM 20.0026 -95.8917 260° West  Level Estimated
Tue 10:35:00 AM 19.9863 -95.9885 260° West  Level Estimated
Tue 10:36:00 AM 19.9699 -96.0853 260° West  Level Estimated
Tue 10:37:00 AM 19.9534 -96.1820 260° West  Level Estimated
Tue 10:38:00 AM 19.9369 -96.2788 260° West  Level Estimated
Tue 10:39:00 AM 19.9203 -96.3755 260° West  Level Estimated
Tue 10:40:00 AM 19.9037 -96.4722 260° West  Level Estimated
Tue 10:41:00 AM 19.8871 -96.5688 260° West  Level Estimated
Tue 10:42:00 AM 19.8704 -96.6655 260° West  Level Estimated
Tue 10:43:00 AM 19.8536 -96.7621 260° West  Level Estimated
Tue 10:44:00 AM 19.8368 -96.8587 260° West  Level Estimated
Tue 10:45:00 AM 19.8199 -96.9553 259° West  Level Estimated
Tue 10:46:00 AM 19.8030 -97.0518 259° West  Level Estimated
Tue 10:47:00 AM 19.7860 -97.1484 259° West  Level Estimated
Tue 10:48:00 AM 19.7690 -97.2449 259° West  Level Estimated
Tue 10:49:00 AM 19.7519 -97.3414 259° West  Level Estimated
Tue 10:50:00 AM 19.7348 -97.4379 259° West  Level Estimated
Tue 10:51:00 AM 19.7176 -97.5343 259° West  Level Estimated
Tue 10:52:00 AM 19.7004 -97.6308 259° West  Level Estimated
Tue 10:53:00 AM 19.6831 -97.7272 259° West  Level Estimated
Tue 10:54:00 AM 19.6658 -97.8236 259° West  Level Estimated
Tue 10:55:00 AM 19.6484 -97.9200 259° West  Level Estimated
Tue 10:56:00 AM 19.6310 -98.0163 259° West  Level Estimated
Tue 10:57:00 AM 19.6135 -98.1127 259° West  Level Estimated
Tue 10:58:00 AM 19.5959 -98.2090 259° West  Level Estimated
Tue 10:59:00 AM 19.5783 -98.3053 259° West  Level Estimated
Tue 11:00:00 AM 19.5607 -98.4015 259° West  Level Estimated
Tue 11:01:00 AM 19.5430 -98.4978 259° West  Level Estimated
Tue 11:02:00 AM 19.5253 -98.5940 259° West  Level Estimated
Tue 11:03:00 AM 19.5075 -98.6902 259° West  Level Estimated
Tue 11:04:00 AM 19.4896 -98.7864 259° West  Level Estimated
Tue 11:05:00 AM 19.4717 -98.8826 259° West  Level Estimated
Tue 11:06:00 AM 19.4538 -98.9787 259° West  Level Estimated
Tue 11:07:00 AM 19.4363 -99.0721 259° West  Level Estimated
Tue 11:08:00 AM 19.4363 -99.0721 43° Northeast  Level Estimated
Tue 11:09:00 AM 19.4363 -99.0721 43° Northeast  Level Estimated
Tue 11:10:00 AM 19.4363 -99.0721 43° Northeast  Level Estimated
Tue 11:11:00 AM 19.4363 -99.0721 43° Northeast  Level Estimated
Tue 11:12:00 AM 19.4363 -99.0721 43° Northeast  Level Estimated
Tue 11:13:00 AM 19.4363 -99.0721 43° Northeast  Level Estimated
Tue 11:14:00 AM 19.4363 -99.0721 43° Northeast  Level Estimated
Tue 11:15:00 AM 19.4363 -99.0721 43° Northeast  Level Estimated
Tue 11:16:00 AM 19.4363 -99.0721 43° Northeast  Level Estimated
Tue 11:17:00 AM 19.4363 -99.0721 43° Northeast  Level Estimated
Tue 11:18:00 AM 19.4363 -99.0721 43° Northeast  Level Estimated

Login

Don't have an account? Register now (free) for customized features, flight alerts, and more!